Flight Track Log - Related Links

Times and Time Zones

All times are in EDT time to prevent confusion due to time zone crossing. See the FFT346 flight status page for this flight to view local times or setup timezone preferences in your user account.

Time Position Orientation Groundspeed Altitude Reporting Facility
EDT Latitude Longitude Course Direction KTS MPH feet Rate Location/Type
Sat 09:47:05 AM 36.0747 -115.1714 270° West 154 177 3,100  Level Los Angeles Center
Sat 09:47:59 AM 36.0750 -115.2325 270° West 198 228 4,500 2,087 Climbing Los Angeles Center
Sat 09:49:00 AM 36.1069 -115.2911 304° West 231 266 7,100 2,512 Climbing Los Angeles Center
Sat 09:50:08 AM 36.1731 -115.2606 20° North 254 292 9,900 2,268 Climbing Los Angeles Center
Sat 09:51:07 AM 36.1944 -115.1558 76° East 321 369 11,900 2,269 Climbing Los Angeles Center
Sat 09:52:07 AM 36.1972 -115.0403 88° East 345 397 14,400 2,479 Climbing Los Angeles Center
Sat 09:53:08 AM 36.2000 -114.9142 88° East 364 419 16,900 2,177 Climbing Los Angeles Center
Sat 09:54:11 AM 36.1994 -114.7944 90° East 373 429 18,900 1,839 Climbing Los Angeles Center
Sat 09:55:12 AM 36.1978 -114.6539 91° East 405 466 20,700 2,115 Climbing Los Angeles Center
Sat 09:56:13 AM 36.1950 -114.4800 91° East 420 483 23,200 2,066 Climbing Los Angeles Center
Sat 09:57:14 AM 36.1939 -114.3297 90° East 435 501 24,900 1,623 Climbing Los Angeles Center
Sat 09:58:15 AM 36.2392 -114.1869 68° East 448 516 26,500 1,403 Climbing Los Angeles Center
Sat 09:59:18 AM 36.2925 -114.0422 65° Northeast 459 528 27,800 1,306 Climbing Los Angeles Center
Sat 10:00:19 AM 36.3486 -113.8928 65° Northeast 475 547 29,200 1,328 Climbing Los Angeles Center
Sat 10:01:20 AM 36.4050 -113.7400 65° Northeast 485 558 30,500 1,377 Climbing Los Angeles Center
Sat 10:02:21 AM 36.4614 -113.5864 65° Northeast 490 564 32,000 1,475 Climbing Los Angeles Center
Sat 10:03:22 AM 36.5244 -113.4175 65° Northeast 492 566 33,500 1,426 Climbing Los Angeles Center
Sat 10:04:23 AM 36.5794 -113.2625 66° East 492 566 34,900 1,317 Climbing Los Angeles Center
Sat 10:05:25 AM 36.6353 -113.1097 65° Northeast 490 564 36,200 885 Climbing Los Angeles Center
Sat 10:06:25 AM 36.6903 -112.9553 66° East 490 564 36,700 397 Climbing Los Angeles Center
Sat 10:07:26 AM 36.7475 -112.7967 66° East 501 577 37,000 148 Climbing Los Angeles Center
Sat 10:08:27 AM 36.8044 -112.6383 66° East 504 580 37,000  Level Los Angeles Center
Sat 10:09:28 AM 36.8614 -112.4778 66° East 507 583 37,000  Level Los Angeles Center
Sat 10:10:29 AM 36.9292 -112.2858 66° East 507 583 37,000  Level Los Angeles Center
Sat 10:11:31 AM 36.9856 -112.1258 66° East 507 583 37,000  Level Los Angeles Center
Sat 10:12:16 AM 37.0194 -112.0286 66° East 509 586 37,000  Level Denver Center
Sat 10:13:17 AM 37.0883 -111.8336 66° East 512 589 37,000  Level Denver Center
Sat 10:14:18 AM 37.1450 -111.6706 66° East 514 592 37,000  Level Denver Center
Sat 10:15:32 AM 37.2097 -111.4769 67° East 509 586 37,000  Level Denver Center
Sat 10:16:33 AM 37.2658 -111.3133 67° East 512 589 37,000  Level Denver Center
Sat 10:17:35 AM 37.3211 -111.1481 67° East 515 593 37,000  Level Denver Center
Sat 10:18:48 AM 37.3758 -110.9850 67° East 510 587 37,000  Level Denver Center
Sat 10:19:50 AM 37.4425 -110.7867 67° East 515 593 37,000  Level Denver Center
Sat 10:20:51 AM 37.4969 -110.6228 67° East 512 589 37,000  Level Denver Center
Sat 10:21:53 AM 37.5469 -110.4747 67° East 517 595 37,000  Level Denver Center
Sat 10:23:07 AM 37.6253 -110.2356 67° East 516 594 37,000  Level Denver Center
Sat 10:24:08 AM 37.6858 -110.0492 68° East 513 590 37,000  Level Denver Center
Sat 10:25:10 AM 37.7386 -109.8872 68° East 519 597 37,000  Level Denver Center
Sat 10:26:11 AM 37.7900 -109.7261 68° East 516 594 37,000  Level Denver Center
Sat 10:27:13 AM 37.8497 -109.5394 68° East 513 590 37,000  Level Denver Center
Sat 10:28:15 AM 37.9014 -109.3797 68° East 511 588 37,000  Level Denver Center
Sat 10:29:28 AM 37.9617 -109.1892 68° East 518 596 37,000  Level Denver Center
Sat 10:30:30 AM 38.0217 -109.0014 68° East 516 594 37,000  Level Denver Center
Sat 10:31:32 AM 38.0764 -108.8239 69° East 530 610 37,000  Level Denver Center
Sat 10:32:34 AM 38.1364 -108.6261 69° East 535 616 37,000  Level Denver Center
Sat 10:33:35 AM 38.1883 -108.4619 68° East 527 606 37,000  Level Denver Center
Sat 10:34:37 AM 38.2481 -108.2675 69° East 527 606 37,000 48 Level Denver Center
Sat 10:35:39 AM 38.2989 -108.1014 69° East 528 608 37,100  Climbing Denver Center
Sat 10:36:40 AM 38.3569 -107.9117 69° East 518 596 37,000 -49 Descending Denver Center
Sat 10:37:42 AM 38.3969 -107.7775 69° East 512 589 37,000 -145 Level Denver Center
Sat 10:38:44 AM 38.4647 -107.5664 68° East 503 579 36,700 -629 Descending Denver Center
Sat 10:39:46 AM 38.5267 -107.4264 60° Northeast 480 552 35,700 -1,016 Descending Denver Center
Sat 10:40:48 AM 38.6031 -107.2564 60° Northeast 494 568 34,600 -927 Descending Denver Center
Sat 10:41:49 AM 38.6633 -107.1214 60° Northeast 511 588 33,800 -878 Descending Denver Center
Sat 10:42:51 AM 38.7311 -106.9692 60° Northeast 497 572 32,800 -1,065 Descending Denver Center
Sat 10:43:53 AM 38.8144 -106.7808 60° Northeast 508 585 31,600 -1,065 Descending Denver Center
Sat 10:44:55 AM 38.8819 -106.6269 61° Northeast 499 574 30,600 -968 Descending Denver Center
Sat 10:45:57 AM 38.9561 -106.4678 59° Northeast 490 564 29,600 -919 Descending Denver Center
Sat 10:46:59 AM 39.0214 -106.3253 59° Northeast 484 557 28,700 -1,306 Descending Denver Center
Sat 10:48:01 AM 39.0958 -106.1644 59° Northeast 474 545 26,900 -1,887 Descending Denver Center
Sat 10:49:03 AM 39.1575 -106.0228 61° Northeast 454 522 24,800 -2,049 Descending Denver Center
Sat 10:50:04 AM 39.2164 -105.8886 60° Northeast 429 494 22,700 -2,000 Descending Denver Center
Sat 10:51:06 AM 39.2725 -105.7614 60° Northeast 409 471 20,700 -1,645 Descending Denver Center
Sat 10:52:08 AM 39.3253 -105.6383 61° Northeast 390 449 19,300 -1,403 Descending Denver Center
Sat 10:53:10 AM 39.3756 -105.5242 60° Northeast 368 423 17,800 -1,210 Descending Denver Center
Sat 10:54:12 AM 39.3983 -105.3975 77° East 349 402 16,800 -1,113 Descending Denver Center
Sat 10:55:14 AM 39.4053 -105.2703 86° East 333 383 15,500 -1,065 Descending Denver Center
Sat 10:56:16 AM 39.4092 -105.1586 87° East 317 365 14,600 -919 Descending Denver Center
Sat 10:57:18 AM 39.4133 -105.0758 86° East 284 327 13,600 -774 Descending Denver Center
Sat 10:58:20 AM 39.4375 -104.9672 74° East 254 292 13,000 -290 Descending Denver Center
Sat 10:59:22 AM 39.4647 -104.8808 68° East 257 296 13,000 -290 Level Denver Center
Sat 11:00:24 AM 39.4925 -104.7892 69° East 254 292 12,400 -823 Descending Denver Center
Sat 11:01:26 AM 39.5531 -104.7436 30° Northeast 251 289 11,300 -1,161 Descending Denver Center
Sat 11:02:28 AM 39.6158 -104.6986 29° Northeast 240 276 10,000 -1,210 Descending Denver Center
Sat 11:03:30 AM 39.6764 -104.6653 23° Northeast 238 274 8,800 -1,210 Descending Denver Center
Sat 11:04:32 AM 39.7369 -104.6617 North 202 232 7,500 -1,161 Descending Denver Center
Sat 11:05:34 AM 39.7814 -104.6614 360° North 163 188 6,400 -919 Descending Denver Center
Sat 11:06:36 AM 39.8228 -104.6608 North 141 162 5,600 -774 Descending Denver Center
Sat 11:08:00 AM 39.8500 -104.6667 10° North  Level FlightAware Approximate

Login

Don't have an account? Register now (free) for customized features, flight alerts, and more!